KOPF/OPF METAR and TAF weather

Enter ICAO airport designator
Station Type Date Time Source
KOPF METAR 2022/06/27 16:53 UTC NOAA

KOPF 271653Z 19006KT 10SM -RA FEW039 SCT049 OVC085 30/24 A3002 RMK AO2 RAB07 SLP166 P0001 T03000239


Station Type Date Time Source
KOPF Decoded METAR 2022/06/27 16:53 UTC NOAA

MIAMI OPA LOCKA AIRPORT, FL, United States (KOPF) 25-54N 80-17W 16M
Jun 27, 2022 - 12:53 PM EDT / 2022.06.27 1653 UTC
Wind: from the S (190 degrees) at 7 MPH (6 KT):0
Visibility: 10 mile(s):0
Sky conditions: overcast
Weather: light rain
Precipitation last hour: 0.01 inches
Temperature: 86.0 F (30.0 C)
Heat index: 94.6 F (34.8 C):1
Dew Point: 75.0 F (23.9 C)
Relative Humidity: 69%
Pressure (altimeter): 30.02 in. Hg (1016 hPa)
ob: KOPF 271653Z 19006KT 10SM -RA FEW039 SCT049 OVC085 30/24 A3002 RMK AO2 RAB07 SLP166 P0001 T03000239
cycle: 17

Station Type Date Time Source
KOPF TAF 2022/06/27 18:24 UTC NOAA

TAF KOPF 271723Z 2718/2818 12010KT P6SM VCTS SCT025CB BKN050
FM272000 12010KT P6SM SCT030 BKN060
FM280100 VRB04KT P6SM SCT030 BKN050
FM281500 13010KT P6SM VCSH SCT030 BKN050
FM281700 13010KT P6SM VCTS SCT025CB BKN050

Example: see airport list